sensor_id;sensor_type;location;lat;lon;timestamp;pressure;altitude;pressure_sealevel;temperature;humidity
21623;BME280;10973;46.706;12.340;2023-04-25T00:00:59;86678.50;;;4.99;53.70
21623;BME280;10973;46.706;12.340;2023-04-25T00:03:26;86683.66;;;4.96;53.74
21623;BME280;10973;46.706;12.340;2023-04-25T00:05:54;86683.66;;;4.96;53.53
21623;BME280;10973;46.706;12.340;2023-04-25T00:08:22;86677.56;;;4.88;53.87
21623;BME280;10973;46.706;12.340;2023-04-25T00:10:49;86686.53;;;4.87;54.23
21623;BME280;10973;46.706;12.340;2023-04-25T00:13:17;86681.66;;;4.86;53.94
21623;BME280;10973;46.706;12.340;2023-04-25T00:15:44;86679.06;;;4.86;54.36
21623;BME280;10973;46.706;12.340;2023-04-25T00:18:11;86675.28;;;4.83;53.99
21623;BME280;10973;46.706;12.340;2023-04-25T00:20:39;86675.22;;;4.80;54.28
21623;BME280;10973;46.706;12.340;2023-04-25T00:23:06;86675.22;;;4.80;53.80
21623;BME280;10973;46.706;12.340;2023-04-25T00:25:33;86670.00;;;4.80;53.54
21623;BME280;10973;46.706;12.340;2023-04-25T00:28:01;86673.38;;;4.80;53.46
21623;BME280;10973;46.706;12.340;2023-04-25T00:30:28;86665.44;;;4.73;53.97
21623;BME280;10973;46.706;12.340;2023-04-25T00:32:56;86667.69;;;4.75;53.83
21623;BME280;10973;46.706;12.340;2023-04-25T00:35:23;86663.91;;;4.69;53.91
21623;BME280;10973;46.706;12.340;2023-04-25T00:37:50;86672.13;;;4.71;53.96
21623;BME280;10973;46.706;12.340;2023-04-25T00:40:18;86667.28;;;4.69;53.79
21623;BME280;10973;46.706;12.340;2023-04-25T00:42:47;86667.56;;;4.64;53.99
21623;BME280;10973;46.706;12.340;2023-04-25T00:45:15;86667.16;;;4.62;54.03
21623;BME280;10973;46.706;12.340;2023-04-25T00:47:42;86658.94;;;4.60;54.29
21623;BME280;10973;46.706;12.340;2023-04-25T00:50:11;86657.13;;;4.64;53.76
21623;BME280;10973;46.706;12.340;2023-04-25T00:52:44;86660.78;;;4.60;53.36
21623;BME280;10973;46.706;12.340;2023-04-25T00:55:12;86651.88;;;4.61;53.82
21623;BME280;10973;46.706;12.340;2023-04-25T00:57:42;86656.28;;;4.57;53.70
21623;BME280;10973;46.706;12.340;2023-04-25T01:00:12;86658.88;;;4.57;53.81
21623;BME280;10973;46.706;12.340;2023-04-25T01:02:41;86655.88;;;4.55;53.66
21623;BME280;10973;46.706;12.340;2023-04-25T01:05:09;86658.81;;;4.50;53.94
21623;BME280;10973;46.706;12.340;2023-04-25T01:07:36;86653.16;;;4.48;53.48
21623;BME280;10973;46.706;12.340;2023-04-25T01:10:06;86656.81;;;4.43;53.92
21623;BME280;10973;46.706;12.340;2023-04-25T01:12:34;86656.03;;;4.39;53.72
21623;BME280;10973;46.706;12.340;2023-04-25T01:15:01;86656.75;;;4.36;54.15
21623;BME280;10973;46.706;12.340;2023-04-25T01:17:29;86652.63;;;4.35;54.32
21623;BME280;10973;46.706;12.340;2023-04-25T01:19:56;86649.66;;;4.37;54.06
21623;BME280;10973;46.706;12.340;2023-04-25T01:22:25;86646.31;;;4.36;53.95
21623;BME280;10973;46.706;12.340;2023-04-25T01:24:53;86648.56;;;4.38;54.07
21623;BME280;10973;46.706;12.340;2023-04-25T01:27:22;86641.84;;;4.37;53.86
21623;BME280;10973;46.706;12.340;2023-04-25T01:29:50;86646.66;;;4.34;53.67
21623;BME280;10973;46.706;12.340;2023-04-25T01:32:18;86652.16;;;4.29;53.88
21623;BME280;10973;46.706;12.340;2023-04-25T01:34:46;86641.72;;;4.29;53.94
21623;BME280;10973;46.706;12.340;2023-04-25T01:37:14;86635.78;;;4.29;54.04
21623;BME280;10973;46.706;12.340;2023-04-25T01:39:41;86634.16;;;4.21;54.59
21623;BME280;10973;46.706;12.340;2023-04-25T01:42:09;86637.16;;;4.23;54.69
21623;BME280;10973;46.706;12.340;2023-04-25T01:44:36;86635.69;;;4.22;54.29
21623;BME280;10973;46.706;12.340;2023-04-25T01:47:03;86633.41;;;4.20;54.42
21623;BME280;10973;46.706;12.340;2023-04-25T01:49:31;86627.84;;;4.22;54.64
21623;BME280;10973;46.706;12.340;2023-04-25T01:51:58;86621.41;;;4.16;54.52
21623;BME280;10973;46.706;12.340;2023-04-25T01:54:26;86632.97;;;4.15;54.62
21623;BME280;10973;46.706;12.340;2023-04-25T01:56:57;86631.13;;;4.15;54.57
21623;BME280;10973;46.706;12.340;2023-04-25T01:59:24;86630.72;;;4.13;54.24
21623;BME280;10973;46.706;12.340;2023-04-25T02:01:51;86635.56;;;4.15;54.60
21623;BME280;10973;46.706;12.340;2023-04-25T02:04:19;86629.59;;;4.14;54.69
21623;BME280;10973;46.706;12.340;2023-04-25T02:06:47;86630.34;;;4.15;54.76
21623;BME280;10973;46.706;12.340;2023-04-25T02:09:20;86621.47;;;4.19;54.34
21623;BME280;10973;46.706;12.340;2023-04-25T02:11:47;86622.53;;;4.15;54.28
21623;BME280;10973;46.706;12.340;2023-04-25T02:14:17;86625.91;;;4.15;54.41
21623;BME280;10973;46.706;12.340;2023-04-25T02:16:45;86622.06;;;4.09;54.54
21623;BME280;10973;46.706;12.340;2023-04-25T02:19:12;86621.38;;;4.12;54.49
21623;BME280;10973;46.706;12.340;2023-04-25T02:21:40;86622.47;;;4.11;54.27
21623;BME280;10973;46.706;12.340;2023-04-25T02:24:07;86626.59;;;4.12;54.51
21623;BME280;10973;46.706;12.340;2023-04-25T02:26:35;86630.25;;;4.08;54.14
21623;BME280;10973;46.706;12.340;2023-04-25T02:29:02;86627.25;;;4.06;54.21
21623;BME280;10973;46.706;12.340;2023-04-25T02:31:30;86621.22;;;4.02;54.43
21623;BME280;10973;46.706;12.340;2023-04-25T02:33:57;86630.13;;;4.01;54.50
21623;BME280;10973;46.706;12.340;2023-04-25T02:36:24;86628.97;;;3.98;54.13
21623;BME280;10973;46.706;12.340;2023-04-25T02:38:52;86632.28;;;3.95;54.15
21623;BME280;10973;46.706;12.340;2023-04-25T02:41:19;86631.53;;;3.95;54.17
21623;BME280;10973;46.706;12.340;2023-04-25T02:43:46;86628.53;;;3.93;54.02
21623;BME280;10973;46.706;12.340;2023-04-25T02:46:15;86628.47;;;3.89;54.47
21623;BME280;10973;46.706;12.340;2023-04-25T02:48:51;86630.97;;;3.82;54.25
21623;BME280;10973;46.706;12.340;2023-04-25T02:51:19;86631.72;;;3.83;54.15
21623;BME280;10973;46.706;12.340;2023-04-25T02:53:46;86623.03;;;3.75;54.38
21623;BME280;10973;46.706;12.340;2023-04-25T02:56:14;86624.06;;;3.71;54.63
21623;BME280;10973;46.706;12.340;2023-04-25T02:58:42;86621.88;;;3.73;54.46
21623;BME280;10973;46.706;12.340;2023-04-25T03:01:09;86625.22;;;3.73;54.66
21623;BME280;10973;46.706;12.340;2023-04-25T03:03:36;86623.75;;;3.72;54.90
21623;BME280;10973;46.706;12.340;2023-04-25T03:06:04;86616.59;;;3.69;54.74
21623;BME280;10973;46.706;12.340;2023-04-25T03:08:31;86614.66;;;3.63;54.83
21623;BME280;10973;46.706;12.340;2023-04-25T03:10:59;86616.91;;;3.64;54.49
21623;BME280;10973;46.706;12.340;2023-04-25T03:13:26;86616.13;;;3.63;54.60
21623;BME280;10973;46.706;12.340;2023-04-25T03:15:53;86618.75;;;3.63;54.71
21623;BME280;10973;46.706;12.340;2023-04-25T03:18:21;86618.28;;;3.58;54.79
21623;BME280;10973;46.706;12.340;2023-04-25T03:20:48;86603.44;;;3.58;54.88
21623;BME280;10973;46.706;12.340;2023-04-25T03:23:15;86606.44;;;3.60;54.71
21623;BME280;10973;46.706;12.340;2023-04-25T03:25:42;86604.16;;;3.59;54.92
21623;BME280;10973;46.706;12.340;2023-04-25T03:28:10;86604.22;;;3.63;54.70
21623;BME280;10973;46.706;12.340;2023-04-25T03:30:39;86598.25;;;3.62;54.59
21623;BME280;10973;46.706;12.340;2023-04-25T03:33:07;86596.06;;;3.64;54.58
21623;BME280;10973;46.706;12.340;2023-04-25T03:35:35;86591.59;;;3.65;54.48
21623;BME280;10973;46.706;12.340;2023-04-25T03:38:02;86590.50;;;3.66;54.25
21623;BME280;10973;46.706;12.340;2023-04-25T03:40:30;86591.59;;;3.65;54.57
21623;BME280;10973;46.706;12.340;2023-04-25T03:42:57;86586.78;;;3.67;54.39
21623;BME280;10973;46.706;12.340;2023-04-25T03:45:24;86585.63;;;3.64;54.46
21623;BME280;10973;46.706;12.340;2023-04-25T03:47:52;86583.31;;;3.59;54.00
21623;BME280;10973;46.706;12.340;2023-04-25T03:50:19;86584.84;;;3.60;54.09
21623;BME280;10973;46.706;12.340;2023-04-25T03:52:46;86581.47;;;3.59;54.56
21623;BME280;10973;46.706;12.340;2023-04-25T03:55:14;86572.06;;;3.51;54.20
21623;BME280;10973;46.706;12.340;2023-04-25T03:57:41;86573.91;;;3.51;54.38
21623;BME280;10973;46.706;12.340;2023-04-25T04:00:09;86581.31;;;3.49;54.40
21623;BME280;10973;46.706;12.340;2023-04-25T04:02:37;86582.34;;;3.44;54.20
21623;BME280;10973;46.706;12.340;2023-04-25T04:05:05;86579.00;;;3.44;53.72
21623;BME280;10973;46.706;12.340;2023-04-25T04:07:33;86582.28;;;3.41;53.72
21623;BME280;10973;46.706;12.340;2023-04-25T04:10:00;86586.69;;;3.37;53.64
21623;BME280;10973;46.706;12.340;2023-04-25T04:12:28;86581.75;;;3.32;53.96
21623;BME280;10973;46.706;12.340;2023-04-25T04:14:55;86581.03;;;3.31;54.33
21623;BME280;10973;46.706;12.340;2023-04-25T04:17:23;86585.31;;;3.20;54.61
21623;BME280;10973;46.706;12.340;2023-04-25T04:19:50;86590.19;;;3.25;54.33
21623;BME280;10973;46.706;12.340;2023-04-25T04:22:17;86582.47;;;3.29;54.21
21623;BME280;10973;46.706;12.340;2023-04-25T04:24:45;86585.75;;;3.26;53.94
21623;BME280;10973;46.706;12.340;2023-04-25T04:27:12;86582.69;;;3.20;54.29
21623;BME280;10973;46.706;12.340;2023-04-25T04:29:39;86578.59;;;3.19;54.19
21623;BME280;10973;46.706;12.340;2023-04-25T04:32:07;86585.63;;;3.19;54.05
21623;BME280;10973;46.706;12.340;2023-04-25T04:34:42;86593.03;;;3.17;54.20
21623;BME280;10973;46.706;12.340;2023-04-25T04:37:10;86587.44;;;3.15;54.60
21623;BME280;10973;46.706;12.340;2023-04-25T04:39:37;86592.28;;;3.16;54.41
21623;BME280;10973;46.706;12.340;2023-04-25T04:42:04;86587.91;;;3.20;54.32
21623;BME280;10973;46.706;12.340;2023-04-25T04:44:32;86590.06;;;3.18;54.77
21623;BME280;10973;46.706;12.340;2023-04-25T04:47:00;86591.53;;;3.16;54.55
21623;BME280;10973;46.706;12.340;2023-04-25T04:49:28;86594.19;;;3.19;54.47
21623;BME280;10973;46.706;12.340;2023-04-25T04:51:55;86593.78;;;3.17;54.52
21623;BME280;10973;46.706;12.340;2023-04-25T04:54:25;86588.22;;;3.19;54.63
21623;BME280;10973;46.706;12.340;2023-04-25T04:56:53;86593.13;;;3.20;54.70
21623;BME280;10973;46.706;12.340;2023-04-25T04:59:20;86575.63;;;3.21;54.71
21623;BME280;10973;46.706;12.340;2023-04-25T05:01:47;86579.78;;;3.25;54.90
21623;BME280;10973;46.706;12.340;2023-04-25T05:04:14;86582.75;;;3.24;54.54
21623;BME280;10973;46.706;12.340;2023-04-25T05:06:42;86572.34;;;3.24;54.52
21623;BME280;10973;46.706;12.340;2023-04-25T05:09:10;86563.75;;;3.23;54.64
21623;BME280;10973;46.706;12.340;2023-04-25T05:11:37;86564.53;;;3.24;54.92
21623;BME280;10973;46.706;12.340;2023-04-25T05:14:04;86566.38;;;3.23;54.74
21623;BME280;10973;46.706;12.340;2023-04-25T05:16:32;86565.56;;;3.19;54.80
21623;BME280;10973;46.706;12.340;2023-04-25T05:19:00;86559.59;;;3.19;54.80
21623;BME280;10973;46.706;12.340;2023-04-25T05:21:27;86559.88;;;3.14;55.44
21623;BME280;10973;46.706;12.340;2023-04-25T05:23:55;86551.78;;;3.19;55.26
21623;BME280;10973;46.706;12.340;2023-04-25T05:26:22;86563.38;;;3.21;54.70
21623;BME280;10973;46.706;12.340;2023-04-25T05:28:50;86563.38;;;3.21;54.92
21623;BME280;10973;46.706;12.340;2023-04-25T05:31:17;86552.94;;;3.21;55.34
21623;BME280;10973;46.706;12.340;2023-04-25T05:33:45;86563.09;;;3.26;55.50
21623;BME280;10973;46.706;12.340;2023-04-25T05:36:13;86574.66;;;3.29;55.41
21623;BME280;10973;46.706;12.340;2023-04-25T05:38:42;86571.00;;;3.33;55.76
21623;BME280;10973;46.706;12.340;2023-04-25T05:41:10;86566.25;;;3.39;55.45
21623;BME280;10973;46.706;12.340;2023-04-25T05:43:37;86574.81;;;3.39;55.71
21623;BME280;10973;46.706;12.340;2023-04-25T05:46:05;86573.78;;;3.44;55.41
21623;BME280;10973;46.706;12.340;2023-04-25T05:48:32;86579.50;;;3.53;55.57
21623;BME280;10973;46.706;12.340;2023-04-25T05:50:59;86571.81;;;3.60;55.63
21623;BME280;10973;46.706;12.340;2023-04-25T05:53:27;86565.97;;;3.67;55.74
21623;BME280;10973;46.706;12.340;2023-04-25T05:55:54;86569.47;;;3.78;55.72
21623;BME280;10973;46.706;12.340;2023-04-25T05:58:22;86568.13;;;3.87;55.70
21623;BME280;10973;46.706;12.340;2023-04-25T06:00:50;86566.06;;;4.00;55.47
21623;BME280;10973;46.706;12.340;2023-04-25T06:03:17;86563.22;;;4.08;55.55
21623;BME280;10973;46.706;12.340;2023-04-25T06:05:47;86556.91;;;4.09;55.54
21623;BME280;10973;46.706;12.340;2023-04-25T06:08:14;86545.81;;;4.16;55.76
21623;BME280;10973;46.706;12.340;2023-04-25T06:10:42;86547.06;;;4.25;55.72
21623;BME280;10973;46.706;12.340;2023-04-25T06:13:10;86552.47;;;4.40;55.80
21623;BME280;10973;46.706;12.340;2023-04-25T06:15:37;86551.84;;;4.50;55.60
21623;BME280;10973;46.706;12.340;2023-04-25T06:18:04;86547.47;;;4.57;55.76
21623;BME280;10973;46.706;12.340;2023-04-25T06:20:32;86550.91;;;4.65;56.08
21623;BME280;10973;46.706;12.340;2023-04-25T06:23:03;86549.19;;;4.76;56.32
21623;BME280;10973;46.706;12.340;2023-04-25T06:25:32;86546.25;;;4.81;55.88
21623;BME280;10973;46.706;12.340;2023-04-25T06:28:00;86542.59;;;4.89;56.00
21623;BME280;10973;46.706;12.340;2023-04-25T06:30:28;86543.06;;;4.98;55.81
21623;BME280;10973;46.706;12.340;2023-04-25T06:32:56;86542.78;;;5.06;55.51
21623;BME280;10973;46.706;12.340;2023-04-25T06:35:24;86533.16;;;5.14;55.75
21623;BME280;10973;46.706;12.340;2023-04-25T06:37:51;86534.75;;;5.22;55.54
21623;BME280;10973;46.706;12.340;2023-04-25T06:40:18;86540.47;;;5.35;55.24
21623;BME280;10973;46.706;12.340;2023-04-25T06:42:46;86533.84;;;5.44;55.06
21623;BME280;10973;46.706;12.340;2023-04-25T06:45:13;86535.03;;;5.54;54.64
21623;BME280;10973;46.706;12.340;2023-04-25T06:47:40;86533.66;;;5.67;54.36
21623;BME280;10973;46.706;12.340;2023-04-25T06:50:08;86527.41;;;5.78;53.75
21623;BME280;10973;46.706;12.340;2023-04-25T06:52:36;86517.03;;;5.86;52.85
21623;BME280;10973;46.706;12.340;2023-04-25T06:55:06;86512.94;;;5.92;51.98
21623;BME280;10973;46.706;12.340;2023-04-25T06:57:33;86511.47;;;5.98;51.25
21623;BME280;10973;46.706;12.340;2023-04-25T07:00:01;86504.81;;;6.04;51.19
21623;BME280;10973;46.706;12.340;2023-04-25T07:02:28;86508.97;;;6.08;50.83
21623;BME280;10973;46.706;12.340;2023-04-25T07:04:56;86510.81;;;6.11;50.80
21623;BME280;10973;46.706;12.340;2023-04-25T07:07:23;86507.09;;;6.12;51.31
21623;BME280;10973;46.706;12.340;2023-04-25T07:09:50;86509.72;;;6.16;51.18
21623;BME280;10973;46.706;12.340;2023-04-25T07:12:18;86504.16;;;6.21;51.06
21623;BME280;10973;46.706;12.340;2023-04-25T07:14:45;86500.44;;;6.25;50.75
21623;BME280;10973;46.706;12.340;2023-04-25T07:17:12;86503.47;;;6.31;50.36
21623;BME280;10973;46.706;12.340;2023-04-25T07:19:41;86497.16;;;6.39;50.01
21623;BME280;10973;46.706;12.340;2023-04-25T07:22:08;86501.34;;;6.51;49.91
21623;BME280;10973;46.706;12.340;2023-04-25T07:24:35;86495.03;;;6.59;49.42
21623;BME280;10973;46.706;12.340;2023-04-25T07:27:02;86497.66;;;6.62;49.24
21623;BME280;10973;46.706;12.340;2023-04-25T07:29:30;86498.06;;;6.68;49.22
21623;BME280;10973;46.706;12.340;2023-04-25T07:31:57;86500.72;;;6.78;49.21
21623;BME280;10973;46.706;12.340;2023-04-25T07:34:25;86489.88;;;6.87;48.73
21623;BME280;10973;46.706;12.340;2023-04-25T07:36:52;86486.56;;;6.97;48.50
21623;BME280;10973;46.706;12.340;2023-04-25T07:39:20;86489.56;;;7.02;48.00
21623;BME280;10973;46.706;12.340;2023-04-25T07:41:47;86492.19;;;7.09;47.61
21623;BME280;10973;46.706;12.340;2023-04-25T07:44:15;86492.59;;;7.18;47.42
21623;BME280;10973;46.706;12.340;2023-04-25T07:46:42;86490.72;;;7.30;47.23
21623;BME280;10973;46.706;12.340;2023-04-25T07:49:09;86493.75;;;7.35;47.02
21623;BME280;10973;46.706;12.340;2023-04-25T07:51:37;86490.38;;;7.45;46.85
21623;BME280;10973;46.706;12.340;2023-04-25T07:54:04;86487.78;;;7.52;46.59
21623;BME280;10973;46.706;12.340;2023-04-25T07:56:32;86487.41;;;7.57;46.94
21623;BME280;10973;46.706;12.340;2023-04-25T07:59:17;86491.91;;;7.64;46.11
21623;BME280;10973;46.706;12.340;2023-04-25T08:01:45;86490.03;;;7.71;46.38
21623;BME280;10973;46.706;12.340;2023-04-25T08:04:12;86487.78;;;7.77;45.76
21623;BME280;10973;46.706;12.340;2023-04-25T08:06:40;86494.16;;;7.79;45.43
21623;BME280;10973;46.706;12.340;2023-04-25T08:09:07;86481.81;;;7.83;45.32
21623;BME280;10973;46.706;12.340;2023-04-25T08:11:36;86478.41;;;7.86;44.72
21623;BME280;10973;46.706;12.340;2023-04-25T08:14:03;86474.69;;;7.95;44.33
21623;BME280;10973;46.706;12.340;2023-04-25T08:16:30;86469.44;;;8.02;44.73
21623;BME280;10973;46.706;12.340;2023-04-25T08:18:59;86473.53;;;8.03;43.80
21623;BME280;10973;46.706;12.340;2023-04-25T08:21:27;86459.66;;;8.02;44.31
21623;BME280;10973;46.706;12.340;2023-04-25T08:23:54;86464.16;;;8.19;43.79
21623;BME280;10973;46.706;12.340;2023-04-25T08:26:22;86458.53;;;8.24;43.68
21623;BME280;10973;46.706;12.340;2023-04-25T08:28:50;86462.69;;;8.29;44.40
21623;BME280;10973;46.706;12.340;2023-04-25T08:31:18;86461.91;;;8.35;43.15
21623;BME280;10973;46.706;12.340;2023-04-25T08:33:45;86458.50;;;8.38;43.09
21623;BME280;10973;46.706;12.340;2023-04-25T08:36:13;86459.63;;;8.41;42.79
21623;BME280;10973;46.706;12.340;2023-04-25T08:38:47;86456.22;;;8.54;43.18
21623;BME280;10973;46.706;12.340;2023-04-25T08:41:16;86454.69;;;8.64;42.62
21623;BME280;10973;46.706;12.340;2023-04-25T08:43:44;86449.78;;;8.77;42.11
21623;BME280;10973;46.706;12.340;2023-04-25T08:46:13;86443.34;;;8.85;42.18
21623;BME280;10973;46.706;12.340;2023-04-25T08:48:46;86447.06;;;8.91;41.80
21623;BME280;10973;46.706;12.340;2023-04-25T08:51:22;86448.16;;;9.00;41.62
21623;BME280;10973;46.706;12.340;2023-04-25T08:53:51;86444.38;;;9.08;40.81
21623;BME280;10973;46.706;12.340;2023-04-25T08:56:25;86447.69;;;9.19;40.57
21623;BME280;10973;46.706;12.340;2023-04-25T08:58:55;86444.28;;;9.26;40.07
21623;BME280;10973;46.706;12.340;2023-04-25T09:01:23;86441.56;;;9.40;39.54
21623;BME280;10973;46.706;12.340;2023-04-25T09:03:51;86439.25;;;9.49;38.83
21623;BME280;10973;46.706;12.340;2023-04-25T09:06:19;86429.78;;;9.62;37.89
21623;BME280;10973;46.706;12.340;2023-04-25T09:08:49;86435.34;;;9.71;37.13
21623;BME280;10973;46.706;12.340;2023-04-25T09:11:18;86437.13;;;9.81;37.49
21623;BME280;10973;46.706;12.340;2023-04-25T09:13:49;86441.63;;;9.84;36.91
21623;BME280;10973;46.706;12.340;2023-04-25T09:16:16;86438.59;;;9.89;36.45
21623;BME280;10973;46.706;12.340;2023-04-25T09:18:47;86444.97;;;9.92;35.65
21623;BME280;10973;46.706;12.340;2023-04-25T09:21:15;86443.78;;;9.96;35.85
21623;BME280;10973;46.706;12.340;2023-04-25T09:23:46;86443.09;;;9.92;35.71
21623;BME280;10973;46.706;12.340;2023-04-25T09:26:17;86449.91;;;9.83;35.77
21623;BME280;10973;46.706;12.340;2023-04-25T09:28:45;86440.47;;;9.89;36.10
21623;BME280;10973;46.706;12.340;2023-04-25T09:31:22;86434.78;;;9.94;36.00
21623;BME280;10973;46.706;12.340;2023-04-25T09:33:50;86446.50;;;9.86;35.35
21623;BME280;10973;46.706;12.340;2023-04-25T09:36:26;86455.13;;;9.90;37.22
21623;BME280;10973;46.706;12.340;2023-04-25T09:38:54;86449.56;;;9.77;38.26
21623;BME280;10973;46.706;12.340;2023-04-25T09:41:25;86452.88;;;9.88;38.11
21623;BME280;10973;46.706;12.340;2023-04-25T09:43:57;86455.88;;;9.87;37.66
21623;BME280;10973;46.706;12.340;2023-04-25T09:46:33;86452.06;;;9.95;37.76
21623;BME280;10973;46.706;12.340;2023-04-25T09:49:07;86455.44;;;9.95;38.30
21623;BME280;10973;46.706;12.340;2023-04-25T09:51:35;86456.25;;;9.92;37.08
21623;BME280;10973;46.706;12.340;2023-04-25T09:54:03;86459.69;;;9.82;35.00
21623;BME280;10973;46.706;12.340;2023-04-25T09:56:36;86465.84;;;9.65;36.29
21623;BME280;10973;46.706;12.340;2023-04-25T09:59:05;86472.56;;;9.66;36.41
21623;BME280;10973;46.706;12.340;2023-04-25T10:01:33;86470.28;;;9.72;36.08
21623;BME280;10973;46.706;12.340;2023-04-25T10:04:05;86471.38;;;9.78;36.81
21623;BME280;10973;46.706;12.340;2023-04-25T10:06:37;86466.50;;;9.73;36.12
21623;BME280;10973;46.706;12.340;2023-04-25T10:09:06;86473.66;;;9.72;37.84
21623;BME280;10973;46.706;12.340;2023-04-25T10:11:36;86471.34;;;9.81;36.71
21623;BME280;10973;46.706;12.340;2023-04-25T10:14:04;86464.22;;;9.78;35.92
21623;BME280;10973;46.706;12.340;2023-04-25T10:16:32;86469.50;;;9.78;34.55
21623;BME280;10973;46.706;12.340;2023-04-25T10:19:00;86467.88;;;9.91;34.22
21623;BME280;10973;46.706;12.340;2023-04-25T10:21:32;86464.78;;;10.03;35.14
21623;BME280;10973;46.706;12.340;2023-04-25T10:24:02;86460.25;;;10.07;34.41
21623;BME280;10973;46.706;12.340;2023-04-25T10:26:30;86452.63;;;10.20;35.16
21623;BME280;10973;46.706;12.340;2023-04-25T10:29:01;86456.25;;;10.37;34.24
21623;BME280;10973;46.706;12.340;2023-04-25T10:31:32;86456.22;;;10.40;33.98
21623;BME280;10973;46.706;12.340;2023-04-25T10:34:00;86448.91;;;10.58;34.03
21623;BME280;10973;46.706;12.340;2023-04-25T10:36:32;86455.16;;;10.71;33.04
21623;BME280;10973;46.706;12.340;2023-04-25T10:39:07;86455.00;;;10.86;34.61
21623;BME280;10973;46.706;12.340;2023-04-25T10:41:58;86457.53;;;10.93;33.96
21623;BME280;10973;46.706;12.340;2023-04-25T10:44:30;86462.78;;;10.96;33.66
21623;BME280;10973;46.706;12.340;2023-04-25T10:47:00;86466.63;;;10.88;34.09
21623;BME280;10973;46.706;12.340;2023-04-25T10:49:41;86470.06;;;10.85;33.77
21623;BME280;10973;46.706;12.340;2023-04-25T10:52:25;86477.66;;;10.80;33.80
21623;BME280;10973;46.706;12.340;2023-04-25T10:54:56;86484.31;;;10.54;35.47
21623;BME280;10973;46.706;12.340;2023-04-25T11:00:22;86483.41;;;10.30;37.65
21623;BME280;10973;46.706;12.340;2023-04-25T11:02:59;86476.66;;;10.26;38.50
21623;BME280;10973;46.706;12.340;2023-04-25T11:05:34;86464.59;;;10.28;38.13
21623;BME280;10973;46.706;12.340;2023-04-25T11:08:37;86473.88;;;10.43;38.49
21623;BME280;10973;46.706;12.340;2023-04-25T11:11:09;86468.06;;;10.62;37.81
21623;BME280;10973;46.706;12.340;2023-04-25T11:13:37;86461.53;;;11.08;39.71
21623;BME280;10973;46.706;12.340;2023-04-25T11:16:08;86458.63;;;11.59;39.48
21623;BME280;10973;46.706;12.340;2023-04-25T11:18:44;86462.75;;;12.13;37.66
21623;BME280;10973;46.706;12.340;2023-04-25T11:21:13;86457.38;;;12.67;37.31
21623;BME280;10973;46.706;12.340;2023-04-25T11:23:40;86458.06;;;13.14;35.51
21623;BME280;10973;46.706;12.340;2023-04-25T11:26:08;86453.88;;;13.52;34.29
21623;BME280;10973;46.706;12.340;2023-04-25T11:28:35;86451.56;;;13.54;33.00
21623;BME280;10973;46.706;12.340;2023-04-25T11:31:04;86451.59;;;13.34;31.91
21623;BME280;10973;46.706;12.340;2023-04-25T11:33:31;86445.56;;;13.14;32.87
21623;BME280;10973;46.706;12.340;2023-04-25T11:35:59;86449.63;;;12.99;31.64
21623;BME280;10973;46.706;12.340;2023-04-25T11:38:26;86452.09;;;12.86;32.77
21623;BME280;10973;46.706;12.340;2023-04-25T11:40:55;86444.69;;;12.58;31.96
21623;BME280;10973;46.706;12.340;2023-04-25T11:43:23;86444.69;;;12.35;33.38
21623;BME280;10973;46.706;12.340;2023-04-25T11:45:50;86441.41;;;12.28;33.15
21623;BME280;10973;46.706;12.340;2023-04-25T11:48:19;86455.13;;;12.19;33.75
21623;BME280;10973;46.706;12.340;2023-04-25T11:50:54;86458.00;;;12.05;32.57
21623;BME280;10973;46.706;12.340;2023-04-25T11:53:21;86453.84;;;11.81;32.45
21623;BME280;10973;46.706;12.340;2023-04-25T11:55:48;86460.81;;;11.64;33.90
21623;BME280;10973;46.706;12.340;2023-04-25T11:58:18;86462.16;;;11.49;34.37
21623;BME280;10973;46.706;12.340;2023-04-25T12:00:45;86458.53;;;11.36;34.44
21623;BME280;10973;46.706;12.340;2023-04-25T12:03:18;86467.06;;;11.17;35.18
21623;BME280;10973;46.706;12.340;2023-04-25T12:05:46;86469.44;;;11.08;35.20
21623;BME280;10973;46.706;12.340;2023-04-25T12:08:15;86470.38;;;10.91;35.52
21623;BME280;10973;46.706;12.340;2023-04-25T12:10:45;86469.31;;;10.85;37.14
21623;BME280;10973;46.706;12.340;2023-04-25T12:13:25;86466.28;;;10.86;38.21
21623;BME280;10973;46.706;12.340;2023-04-25T12:15:56;86465.19;;;11.17;36.67
21623;BME280;10973;46.706;12.340;2023-04-25T12:18:24;86461.69;;;11.84;39.01
21623;BME280;10973;46.706;12.340;2023-04-25T12:20:53;86443.72;;;12.49;36.07
21623;BME280;10973;46.706;12.340;2023-04-25T12:23:28;86443.03;;;12.87;35.11
21623;BME280;10973;46.706;12.340;2023-04-25T12:25:56;86447.59;;;13.07;34.40
21623;BME280;10973;46.706;12.340;2023-04-25T12:28:24;86438.66;;;13.40;32.84
21623;BME280;10973;46.706;12.340;2023-04-25T12:31:03;86431.94;;;13.71;34.40
21623;BME280;10973;46.706;12.340;2023-04-25T12:33:34;86425.34;;;13.79;32.95
21623;BME280;10973;46.706;12.340;2023-04-25T12:36:04;86433.47;;;13.88;32.28
21623;BME280;10973;46.706;12.340;2023-04-25T12:38:38;86436.63;;;13.99;32.30
21623;BME280;10973;46.706;12.340;2023-04-25T12:41:06;86432.22;;;13.93;32.98
21623;BME280;10973;46.706;12.340;2023-04-25T12:43:33;86435.59;;;13.77;31.92
21623;BME280;10973;46.706;12.340;2023-04-25T12:46:01;86431.44;;;13.60;31.61
21623;BME280;10973;46.706;12.340;2023-04-25T12:48:28;86436.69;;;13.44;31.92
21623;BME280;10973;46.706;12.340;2023-04-25T12:50:56;86429.00;;;13.30;31.77
21623;BME280;10973;46.706;12.340;2023-04-25T12:53:23;86439.28;;;13.08;32.27
21623;BME280;10973;46.706;12.340;2023-04-25T12:55:51;86442.53;;;12.93;32.10
21623;BME280;10973;46.706;12.340;2023-04-25T12:58:19;86445.91;;;12.73;32.74
21623;BME280;10973;46.706;12.340;2023-04-25T13:00:47;86444.38;;;12.53;31.83
21623;BME280;10973;46.706;12.340;2023-04-25T13:03:14;86447.03;;;12.30;31.60
21623;BME280;10973;46.706;12.340;2023-04-25T13:05:42;86450.19;;;12.21;32.19
21623;BME280;10973;46.706;12.340;2023-04-25T13:08:10;86456.78;;;12.09;33.43